createdAt,value
2018-04-10T00:00:00.403Z,30.00
2018-04-10T00:02:27.942Z,26.83
2018-04-10T00:04:55.488Z,28.03
2018-04-10T00:07:23.041Z,28.97
2018-04-10T00:09:50.599Z,29.33
2018-04-10T00:12:18.174Z,29.40
2018-04-10T00:14:45.731Z,28.00
2018-04-10T00:17:13.281Z,27.67
2018-04-10T00:19:40.833Z,27.90
2018-04-10T00:22:08.393Z,26.47
2018-04-10T00:24:35.945Z,28.37
2018-04-10T00:27:03.490Z,29.90
2018-04-10T00:29:31.046Z,29.27
2018-04-10T00:31:58.614Z,28.67
2018-04-10T00:34:26.168Z,29.90
2018-04-10T00:36:53.715Z,28.17
2018-04-10T00:39:22.032Z,29.60
2018-04-10T00:41:49.611Z,29.67
2018-04-10T00:44:17.153Z,28.97
2018-04-10T00:46:44.697Z,26.03
2018-04-10T00:49:12.302Z,29.90
2018-04-10T00:51:39.833Z,29.37
2018-04-10T00:54:07.438Z,29.47
2018-04-10T00:56:35.755Z,29.90
2018-04-10T00:59:03.336Z,27.50
2018-04-10T01:01:30.883Z,30.90
2018-04-10T01:03:58.432Z,31.13
2018-04-10T01:06:26.006Z,29.83
2018-04-10T01:08:53.535Z,29.93
2018-04-10T01:11:21.087Z,30.27
2018-04-10T01:13:49.421Z,30.80
2018-04-10T01:16:16.969Z,30.97
2018-04-10T01:18:44.580Z,31.17
2018-04-10T01:21:12.894Z,30.10
2018-04-10T01:23:40.427Z,29.60
2018-04-10T01:26:07.990Z,32.13
2018-04-10T01:28:35.529Z,33.27
2018-04-10T01:31:03.871Z,30.30
2018-04-10T01:33:31.421Z,31.30
2018-04-10T01:35:58.967Z,29.57
2018-04-10T01:38:26.643Z,31.03
2018-04-10T01:40:54.171Z,30.73
2018-04-10T01:43:21.735Z,31.83
2018-04-10T01:45:49.272Z,31.73
2018-04-10T01:48:17.593Z,30.53
2018-04-10T01:50:45.146Z,32.57
2018-04-10T01:53:12.698Z,31.70
2018-04-10T01:55:40.262Z,31.50
2018-04-10T01:58:07.816Z,29.00
2018-04-10T02:00:35.372Z,32.77
2018-04-10T02:03:02.908Z,31.03
2018-04-10T02:05:31.201Z,30.60
2018-04-10T02:07:58.775Z,32.10
2018-04-10T02:16:25.585Z,32.53
2018-04-10T02:19:10.755Z,31.47
2018-04-10T02:21:55.770Z,30.47
2018-04-10T02:24:23.344Z,33.80
2018-04-10T02:26:50.878Z,30.07
2018-04-10T02:29:19.196Z,31.57
2018-04-10T02:31:46.721Z,31.77
2018-04-10T02:34:15.038Z,32.23
2018-04-10T02:36:42.578Z,31.90
2018-04-10T02:39:10.138Z,29.77
2018-04-10T02:41:37.726Z,29.43
2018-04-10T02:44:05.247Z,32.20
2018-04-10T02:46:32.820Z,30.77
2018-04-10T02:49:00.361Z,27.77
2018-04-10T02:51:28.682Z,29.03
2018-04-10T02:53:56.236Z,28.37
2018-04-10T02:56:23.789Z,29.43
2018-04-10T02:58:51.326Z,28.30
2018-04-10T03:01:18.866Z,26.60
2018-04-10T03:03:47.198Z,27.67
2018-04-10T03:06:14.738Z,28.00
2018-04-10T03:08:42.290Z,27.90
2018-04-10T03:11:09.832Z,27.00
2018-04-10T03:13:37.399Z,27.57
2018-04-10T03:16:04.923Z,27.50
2018-04-10T03:18:32.462Z,26.80
2018-04-10T03:21:00.007Z,27.40
2018-04-10T03:23:27.551Z,26.90
2018-04-10T03:25:55.096Z,26.60
2018-04-10T03:28:22.654Z,28.07
2018-04-10T03:30:50.195Z,27.37
2018-04-10T03:33:18.502Z,27.97
2018-04-10T03:35:46.058Z,28.40
2018-04-10T03:38:13.602Z,25.90
2018-04-10T03:40:41.179Z,29.53
2018-04-10T03:43:08.733Z,26.90
2018-04-10T03:45:36.286Z,28.50
2018-04-10T03:48:03.850Z,29.17
2018-04-10T03:50:31.395Z,29.20
2018-04-10T03:52:58.975Z,27.73
2018-04-10T03:55:26.514Z,26.70
2018-04-10T03:57:54.057Z,28.50
2018-04-10T04:00:22.396Z,26.07
2018-04-10T04:02:49.937Z,26.20
2018-04-10T04:05:17.493Z,24.30
2018-04-10T04:07:45.015Z,24.83
2018-04-10T04:10:13.333Z,25.17
2018-04-10T04:12:40.864Z,24.97
2018-04-10T04:15:08.421Z,22.43
2018-04-10T04:17:35.983Z,22.23
2018-04-10T04:20:15.561Z,20.83
2018-04-10T04:22:43.114Z,21.13
2018-04-10T04:25:10.664Z,20.93
2018-04-10T04:27:38.240Z,21.13
2018-04-10T04:30:05.769Z,21.90
2018-04-10T04:32:33.326Z,21.40
2018-04-10T04:35:00.873Z,20.83
2018-04-10T04:37:29.227Z,23.97
2018-04-10T04:39:56.783Z,22.10
2018-04-10T04:42:24.322Z,22.10
2018-04-10T04:44:51.885Z,22.53
2018-04-10T04:47:19.422Z,21.53
2018-04-10T04:49:46.973Z,23.63
2018-04-10T04:52:14.495Z,23.70
2018-04-10T04:54:42.808Z,21.53
2018-04-10T04:57:10.365Z,23.50
2018-04-10T04:59:37.968Z,24.20
2018-04-10T05:02:05.475Z,23.23
2018-04-10T05:04:33.031Z,25.30
2018-04-10T05:07:00.592Z,21.60
2018-04-10T05:09:28.171Z,23.13
2018-04-10T05:11:55.700Z,20.40
2018-04-10T05:14:23.238Z,23.73
2018-04-10T05:16:51.566Z,24.20
2018-04-10T05:19:19.138Z,24.40
2018-04-10T05:21:46.681Z,22.63
2018-04-10T05:24:14.246Z,22.27
2018-04-10T05:26:41.777Z,22.57
2018-04-10T05:29:09.327Z,23.87
2018-04-10T05:31:36.910Z,24.20
2018-04-10T05:34:04.441Z,23.23
2018-04-10T05:36:32.766Z,23.47
2018-04-10T05:39:00.313Z,23.77
2018-04-10T05:41:27.887Z,22.93
2018-04-10T05:43:55.419Z,25.03
2018-04-10T05:46:22.964Z,23.50
2018-04-10T05:48:50.492Z,24.00
2018-04-10T05:51:18.064Z,23.30
2018-04-10T05:53:46.372Z,22.23
2018-04-10T05:56:13.940Z,22.17
2018-04-10T05:58:41.492Z,26.20
2018-04-10T06:01:09.062Z,24.30
2018-04-10T06:03:36.602Z,22.83
2018-04-10T06:06:04.191Z,26.20
2018-04-10T06:08:31.747Z,24.48
2018-04-10T06:11:00.092Z,24.73
2018-04-10T06:13:27.637Z,26.60
2018-04-10T06:15:55.937Z,25.47
2018-04-10T06:18:23.516Z,25.60
2018-04-10T06:20:51.058Z,24.90
2018-04-10T06:23:18.615Z,25.13
2018-04-10T06:25:46.183Z,25.37
2018-04-10T06:28:13.749Z,28.50
2018-04-10T06:30:41.291Z,28.73
2018-04-10T06:33:08.862Z,27.70
2018-04-10T06:35:36.408Z,27.30
2018-04-10T06:38:03.955Z,28.27
2018-04-10T06:40:32.267Z,29.20
2018-04-10T06:42:59.849Z,29.20
2018-04-10T06:45:27.406Z,28.73
2018-04-10T06:47:54.977Z,28.57
2018-04-10T06:50:22.507Z,28.10
2018-04-10T06:52:50.051Z,29.23
2018-04-10T06:55:17.628Z,30.03
2018-04-10T06:57:45.166Z,30.30
2018-04-10T07:00:12.717Z,28.60
2018-04-10T07:02:40.347Z,26.23
2018-04-10T07:05:07.894Z,30.50
2018-04-10T07:07:36.217Z,30.20
2018-04-10T07:10:03.781Z,28.00
2018-04-10T07:12:31.340Z,27.23
2018-04-10T07:14:58.892Z,26.00
2018-04-10T07:17:26.426Z,27.03
2018-04-10T07:19:54.764Z,26.53
2018-04-10T07:22:22.289Z,25.13
2018-04-10T07:24:49.856Z,26.20
2018-04-10T07:27:17.415Z,26.27
2018-04-10T07:29:44.976Z,24.50
2018-04-10T07:32:12.523Z,24.63
2018-04-10T07:34:40.049Z,26.23
2018-04-10T07:37:07.624Z,24.50
2018-04-10T07:39:35.963Z,22.30
2018-04-10T07:42:03.529Z,21.00
2018-04-10T07:44:31.063Z,22.80
2018-04-10T07:46:58.639Z,19.53
2018-04-10T07:49:26.187Z,18.73
2018-04-10T07:51:53.777Z,20.30
2018-04-10T07:54:21.328Z,21.40
2018-04-10T07:56:48.904Z,20.80
2018-04-10T07:59:16.439Z,19.27
2018-04-10T08:01:44.000Z,19.70
2018-04-10T08:04:11.525Z,21.70
2018-04-10T08:06:39.090Z,20.73
2018-04-10T08:09:06.631Z,20.20
2018-04-10T08:11:34.174Z,21.10
2018-04-10T08:14:02.488Z,19.73
2018-04-10T08:16:30.035Z,20.50
2018-04-10T08:18:57.608Z,18.23
2018-04-10T08:21:25.142Z,16.70
2018-04-10T08:23:52.688Z,14.50
2018-04-10T08:26:21.010Z,16.40
2018-04-10T08:28:48.556Z,16.07
2018-04-10T08:31:16.146Z,16.50
2018-04-10T08:33:43.718Z,15.30
2018-04-10T08:36:11.284Z,12.97
2018-04-10T08:38:39.623Z,16.52
2018-04-10T08:41:07.144Z,15.40
2018-04-10T08:43:34.702Z,14.23
2018-04-10T08:46:03.011Z,14.73
2018-04-10T08:48:30.560Z,16.77
2018-04-10T08:50:58.128Z,15.10
2018-04-10T08:53:25.665Z,14.67
2018-04-10T08:55:53.247Z,18.70
2018-04-10T08:58:20.788Z,14.37
2018-04-10T09:03:40.453Z,14.47
2018-04-10T09:06:08.775Z,14.53
2018-04-10T09:08:36.327Z,18.93
2018-04-10T09:11:03.856Z,16.67
2018-04-10T09:13:32.183Z,12.10
2018-04-10T09:15:59.720Z,16.53
2018-04-10T09:18:27.282Z,16.93
2018-04-10T09:20:54.833Z,16.67
2018-04-10T09:23:22.403Z,11.20
2018-04-10T09:25:49.942Z,17.30
2018-04-10T09:28:17.483Z,16.40
2018-04-10T09:30:45.771Z,18.60
2018-04-10T09:33:14.108Z,13.50
2018-04-10T09:35:41.633Z,17.73
2018-04-10T09:38:09.196Z,17.77
2018-04-10T09:40:36.737Z,17.50
2018-04-10T09:43:04.304Z,19.73
2018-04-10T09:45:31.845Z,17.10
2018-04-10T09:48:00.179Z,19.70
2018-04-10T09:50:27.718Z,17.50
2018-04-10T09:52:55.273Z,19.20
2018-04-10T09:55:22.805Z,21.25
2018-04-10T09:57:50.365Z,14.40
2018-04-10T10:00:23.588Z,13.50
2018-04-10T10:02:51.139Z,18.93
2018-04-10T10:05:18.673Z,17.97
2018-04-10T10:07:47.056Z,20.13
2018-04-10T10:10:14.589Z,18.30
2018-04-10T10:12:42.189Z,19.37
2018-04-10T10:15:10.508Z,19.20
2018-04-10T10:17:38.078Z,19.47
2018-04-10T10:20:06.395Z,21.47
2018-04-10T10:22:33.936Z,20.60
2018-04-10T10:25:02.282Z,19.40
2018-04-10T10:27:29.826Z,20.13
2018-04-10T10:29:57.381Z,17.90
2018-04-10T10:32:24.904Z,18.90
2018-04-10T10:34:52.453Z,18.73
2018-04-10T10:37:19.989Z,14.40
2018-04-10T10:39:47.561Z,16.20
2018-04-10T10:42:15.880Z,16.80
2018-04-10T10:44:43.446Z,11.33
2018-04-10T10:47:10.975Z,17.27
2018-04-10T10:49:38.521Z,11.80
2018-04-10T10:52:06.825Z,19.53
2018-04-10T10:56:59.529Z,16.37
2018-04-10T10:59:27.093Z,17.80
2018-04-10T11:01:54.631Z,18.90
2018-04-10T11:04:22.519Z,20.03
2018-04-10T11:06:50.092Z,16.00
2018-04-10T11:09:18.432Z,18.30
2018-04-10T11:11:45.982Z,14.00
2018-04-10T11:14:13.552Z,17.73
2018-04-10T11:16:41.095Z,12.30
2018-04-10T11:19:08.793Z,17.87
2018-04-10T11:21:36.337Z,18.07
2018-04-10T11:24:03.903Z,16.80
2018-04-10T11:26:31.434Z,17.97
2018-04-10T11:28:58.975Z,18.23
2018-04-10T11:31:26.514Z,20.67
2018-04-10T11:33:54.053Z,21.13
2018-04-10T11:36:21.586Z,17.90
2018-04-10T11:38:49.143Z,19.77
2018-04-10T11:41:16.668Z,23.23
2018-04-10T11:43:44.231Z,21.60
2018-04-10T11:46:11.756Z,23.23
2018-04-10T11:48:39.292Z,22.33
2018-04-10T11:51:06.813Z,22.77
2018-04-10T11:53:34.367Z,16.07
2018-04-10T11:56:01.901Z,23.23
2018-04-10T11:58:30.333Z,24.60
2018-04-10T12:00:57.880Z,25.07
2018-04-10T12:03:25.420Z,26.07
2018-04-10T12:05:52.955Z,14.83
2018-04-10T12:08:21.293Z,23.10
2018-04-10T12:10:48.838Z,15.20
2018-04-10T12:13:17.139Z,21.40
2018-04-10T12:15:44.674Z,20.90
2018-04-10T12:18:12.229Z,22.40
2018-04-10T12:20:39.781Z,20.53
2018-04-10T12:23:07.347Z,21.80
2018-04-10T12:25:34.887Z,24.20
2018-04-10T12:28:02.456Z,22.03
2018-04-10T12:30:30.762Z,25.70
2018-04-10T12:32:58.294Z,23.30
2018-04-10T12:35:25.848Z,19.40
2018-04-10T12:37:53.387Z,10.00
2018-04-10T12:40:20.930Z,23.60
2018-04-10T12:42:48.513Z,18.17
2018-04-10T12:45:16.075Z,22.47
2018-04-10T12:47:43.636Z,23.15
2018-04-10T12:50:11.177Z,23.40
2018-04-10T12:52:39.490Z,18.70
2018-04-10T12:55:07.028Z,23.93
2018-04-10T12:57:34.547Z,25.40
2018-04-10T13:00:02.116Z,22.83
2018-04-10T13:02:30.420Z,23.77
2018-04-10T13:04:57.973Z,27.00
2018-04-10T13:07:25.496Z,16.27
2018-04-10T13:09:53.067Z,11.03
2018-04-10T13:12:20.591Z,25.90
2018-04-10T13:14:48.123Z,26.37
2018-04-10T13:17:15.674Z,25.90
2018-04-10T13:19:43.221Z,30.20
2018-04-10T13:22:11.522Z,24.77
2018-04-10T13:24:39.096Z,23.00
2018-04-10T13:27:06.664Z,23.00
2018-04-10T13:29:34.209Z,18.23
2018-04-10T13:32:01.768Z,25.00
2018-04-10T13:34:29.326Z,28.50
2018-04-10T13:36:56.863Z,27.60
2018-04-10T13:39:24.413Z,14.30
2018-04-10T13:41:52.709Z,20.20
2018-04-10T13:44:20.311Z,17.47
2018-04-10T13:46:47.845Z,23.53
2018-04-10T13:49:15.415Z,15.23
2018-04-10T13:51:42.963Z,13.93
2018-04-10T13:54:10.633Z,21.27
2018-04-10T13:56:38.165Z,23.73
2018-04-10T13:59:05.709Z,19.87
2018-04-10T14:01:34.017Z,31.50
2018-04-10T14:04:01.570Z,17.73
2018-04-10T14:06:29.112Z,30.57
2018-04-10T14:08:56.676Z,23.80
2018-04-10T14:11:24.199Z,33.83
2018-04-10T14:13:51.736Z,21.80
2018-04-10T14:16:19.291Z,35.03
2018-04-10T14:18:46.853Z,28.07
2018-04-10T14:21:14.388Z,22.40
2018-04-10T14:23:41.945Z,35.70
2018-04-10T14:26:09.499Z,33.50
2018-04-10T14:28:37.031Z,36.83
2018-04-10T14:31:05.348Z,32.40
2018-04-10T14:33:32.902Z,27.87
2018-04-10T14:36:00.457Z,26.70
2018-04-10T14:38:28.012Z,18.73
2018-04-10T14:40:55.558Z,41.77
2018-04-10T14:43:23.119Z,37.03
2018-04-10T14:45:50.654Z,22.67
2018-04-10T14:48:18.973Z,22.30
2018-04-10T14:50:46.539Z,37.80
2018-04-10T14:53:14.077Z,39.90
2018-04-10T14:55:41.625Z,30.77
2018-04-10T14:58:09.191Z,42.53
2018-04-10T15:00:36.723Z,40.83
2018-04-10T15:03:05.056Z,37.30
2018-04-10T15:05:32.595Z,26.87
2018-04-10T15:08:00.153Z,39.80
2018-04-10T15:10:27.722Z,37.27
2018-04-10T15:12:55.269Z,34.83
2018-04-10T15:15:22.800Z,29.43
2018-04-10T15:17:50.357Z,42.17
2018-04-10T15:20:18.642Z,35.17
2018-04-10T15:22:46.927Z,25.00
2018-04-10T15:25:14.474Z,36.67
2018-04-10T15:27:42.767Z,37.67
2018-04-10T15:30:10.332Z,43.43
2018-04-10T15:32:37.863Z,41.33
2018-04-10T15:35:06.192Z,36.30
2018-04-10T15:37:33.725Z,39.93
2018-04-10T15:40:01.277Z,38.33
2018-04-10T15:42:28.825Z,37.80
2018-04-10T15:44:57.141Z,42.97
2018-04-10T15:47:24.695Z,39.37
2018-04-10T15:49:52.260Z,26.43
2018-04-10T15:52:19.816Z,29.47
2018-04-10T15:54:47.359Z,34.80
2018-04-10T15:57:14.886Z,34.33
2018-04-10T15:59:43.205Z,45.10
2018-04-10T16:02:10.766Z,37.20
2018-04-10T16:04:38.318Z,36.87
2018-04-10T16:07:05.848Z,30.87
2018-04-10T16:09:34.170Z,41.73
2018-04-10T16:12:01.706Z,35.30
2018-04-10T16:14:29.255Z,45.47
2018-04-10T16:16:57.560Z,30.57
2018-04-10T16:19:25.116Z,28.87
2018-04-10T16:21:52.669Z,45.80
2018-04-10T16:24:20.236Z,45.17
2018-04-10T16:26:48.260Z,31.50
2018-04-10T16:29:15.895Z,30.40
2018-04-10T16:31:43.457Z,32.20
2018-04-10T16:34:11.024Z,45.03
2018-04-10T16:36:38.566Z,33.90
2018-04-10T16:39:06.137Z,27.53
2018-04-10T16:41:33.674Z,36.30
2018-04-10T16:44:01.235Z,28.83
2018-04-10T16:46:28.795Z,30.20
2018-04-10T16:48:56.339Z,29.60
2018-04-10T16:51:23.875Z,28.17
2018-04-10T16:53:51.449Z,29.40
2018-04-10T16:56:19.016Z,31.93
2018-04-10T16:58:46.564Z,32.87
2018-04-10T17:01:14.106Z,28.37
2018-04-10T17:03:42.439Z,29.67
2018-04-10T17:06:09.975Z,28.63
2018-04-10T17:08:37.539Z,40.07
2018-04-10T17:11:05.082Z,30.23
2018-04-10T17:13:32.638Z,30.10
2018-04-10T17:16:00.159Z,28.53
2018-04-10T17:18:27.743Z,28.73
2018-04-10T17:20:56.037Z,33.80
2018-04-10T17:23:23.589Z,36.30
2018-04-10T17:25:51.139Z,42.47
2018-04-10T17:28:18.682Z,41.50
2018-04-10T17:30:46.974Z,40.50
2018-04-10T17:33:14.539Z,39.03
2018-04-10T17:35:42.113Z,38.20
2018-04-10T17:38:09.643Z,34.20
2018-04-10T17:40:37.936Z,26.40
2018-04-10T17:43:05.475Z,34.80
2018-04-10T17:45:33.774Z,29.70
2018-04-10T17:48:01.351Z,35.30
2018-04-10T17:50:28.897Z,41.90
2018-04-10T17:52:56.449Z,34.90
2018-04-10T17:55:23.981Z,35.90
2018-04-10T17:57:51.529Z,35.20
2018-04-10T18:00:19.085Z,41.20
2018-04-10T18:02:46.625Z,27.83
2018-04-10T18:05:14.163Z,31.43
2018-04-10T18:07:41.721Z,32.33
2018-04-10T18:10:09.288Z,35.47
2018-04-10T18:20:53.894Z,29.00
2018-04-10T18:23:21.437Z,34.37
2018-04-10T18:25:48.977Z,31.57
2018-04-10T18:28:17.306Z,26.30
2018-04-10T18:30:44.855Z,31.20
2018-04-10T18:33:12.424Z,35.20
2018-04-10T18:35:39.978Z,36.70
2018-04-10T18:38:07.532Z,34.10
2018-04-10T18:40:35.090Z,42.03
2018-04-10T18:43:02.661Z,36.70
2018-04-10T18:45:30.218Z,44.10
2018-04-10T18:47:57.758Z,38.70
2018-04-10T18:50:25.369Z,28.40
2018-04-10T18:52:52.920Z,27.93
2018-04-10T18:55:20.449Z,27.80
2018-04-10T18:57:48.051Z,25.37
2018-04-10T19:00:16.373Z,27.97
2018-04-10T19:02:43.947Z,27.00
2018-04-10T19:05:11.498Z,30.80
2018-04-10T19:07:39.042Z,28.00
2018-04-10T19:10:06.598Z,27.60
2018-04-10T19:12:34.160Z,47.00
2018-04-10T19:15:01.736Z,47.30
2018-04-10T19:17:29.278Z,37.20
2018-04-10T19:19:56.813Z,33.07
2018-04-10T19:22:25.165Z,45.17
2018-04-10T19:24:52.696Z,47.07
2018-04-10T19:27:20.266Z,46.70
2018-04-10T19:29:47.796Z,47.83
2018-04-10T19:32:15.320Z,46.83
2018-04-10T19:34:43.632Z,48.20
2018-04-10T19:37:11.205Z,42.97
2018-04-10T19:39:38.790Z,50.00
2018-04-10T19:42:06.337Z,46.40
2018-04-10T19:44:33.875Z,48.03
2018-04-10T19:47:01.442Z,47.03
2018-04-10T19:49:28.979Z,47.57
2018-04-10T19:51:56.544Z,45.87
2018-04-10T19:54:24.068Z,46.83
2018-04-10T19:56:52.387Z,46.57
2018-04-10T19:59:19.945Z,47.73
2018-04-10T20:01:47.482Z,47.40
2018-04-10T20:04:15.033Z,47.20
2018-04-10T20:06:43.346Z,49.30
2018-04-10T20:09:10.908Z,49.40
2018-04-10T20:11:38.455Z,45.83
2018-04-10T20:14:05.994Z,48.67
2018-04-10T20:16:34.329Z,46.80
2018-04-10T20:19:01.871Z,46.90
2018-04-10T20:21:29.455Z,49.23
2018-04-10T20:23:57.003Z,47.70
2018-04-10T20:26:24.546Z,46.13
2018-04-10T20:28:52.126Z,46.83
2018-04-10T20:31:19.656Z,48.63
2018-04-10T20:33:47.225Z,45.70
2018-04-10T20:36:14.768Z,46.57
2018-04-10T20:38:42.316Z,46.30
2018-04-10T20:41:09.874Z,46.57
2018-04-10T20:43:37.414Z,45.00
2018-04-10T20:46:05.732Z,46.93
2018-04-10T20:48:33.275Z,45.13
2018-04-10T20:51:00.820Z,47.30
2018-04-10T20:53:29.145Z,42.53
2018-04-10T20:55:56.692Z,37.00
2018-04-10T20:58:24.254Z,38.77
2018-04-10T21:00:51.812Z,37.70
2018-04-10T21:03:19.368Z,38.10
2018-04-10T21:05:46.926Z,32.40
2018-04-10T21:08:14.469Z,30.27
2018-04-10T21:10:42.034Z,29.57
2018-04-10T21:13:09.579Z,29.03
2018-04-10T21:15:37.165Z,29.30
2018-04-10T21:18:04.723Z,30.57
2018-04-10T21:20:32.288Z,28.37
2018-04-10T21:22:59.816Z,21.80
2018-04-10T21:25:27.410Z,20.20
2018-04-10T21:27:54.964Z,16.63
2018-04-10T21:30:22.561Z,14.17
2018-04-10T21:32:50.110Z,12.77
2018-04-10T21:35:17.654Z,11.97
2018-04-10T21:37:45.232Z,13.13
2018-04-10T21:40:12.759Z,12.20
2018-04-10T21:42:46.045Z,11.37
2018-04-10T21:45:13.590Z,11.70
2018-04-10T21:47:41.111Z,11.27
2018-04-10T21:50:08.663Z,12.07
2018-04-10T21:52:36.236Z,12.40
2018-04-10T21:55:03.786Z,11.87
2018-04-10T21:57:31.331Z,11.27
2018-04-10T21:59:58.912Z,11.50
2018-04-10T22:02:26.435Z,13.07
2018-04-10T22:04:53.997Z,12.70
2018-04-10T22:07:21.545Z,11.40
2018-04-10T22:09:49.094Z,13.17
2018-04-10T22:12:16.669Z,12.90
2018-04-10T22:14:44.217Z,12.77
2018-04-10T22:17:11.800Z,13.70
2018-04-10T22:19:39.357Z,13.27
2018-04-10T22:22:06.929Z,13.80
2018-04-10T22:24:34.460Z,14.13
2018-04-10T22:27:02.002Z,14.97
2018-04-10T22:29:29.576Z,14.93
2018-04-10T22:31:57.106Z,14.53
2018-04-10T22:34:24.629Z,15.73
2018-04-10T22:36:52.949Z,16.43
2018-04-10T22:39:20.518Z,14.93
2018-04-10T22:41:48.050Z,14.40
2018-04-10T22:44:15.632Z,14.90
2018-04-10T22:46:43.188Z,13.20
2018-04-10T22:49:10.720Z,14.50
2018-04-10T22:51:38.280Z,14.87
2018-04-10T22:54:05.845Z,14.70
2018-04-10T22:56:33.389Z,15.10
2018-04-10T22:59:00.948Z,15.23
2018-04-10T23:01:28.497Z,15.10
2018-04-10T23:03:56.793Z,16.10
2018-04-10T23:06:24.359Z,15.40
2018-04-10T23:08:51.925Z,14.87
2018-04-10T23:11:19.478Z,13.90
2018-04-10T23:13:47.027Z,16.93
2018-04-10T23:16:15.366Z,16.40
2018-04-10T23:18:42.932Z,16.80
2018-04-10T23:21:10.485Z,15.57
2018-04-10T23:23:38.061Z,16.33
2018-04-10T23:26:05.616Z,15.77
2018-04-10T23:28:33.191Z,16.40
2018-04-10T23:31:00.775Z,16.00
2018-04-10T23:33:29.117Z,17.27
2018-04-10T23:35:56.668Z,17.93
2018-04-10T23:38:25.021Z,17.80
2018-04-10T23:40:52.552Z,17.10
2018-04-10T23:43:20.872Z,17.17
2018-04-10T23:45:48.452Z,16.87
2018-04-10T23:48:16.011Z,18.10
2018-04-10T23:50:43.567Z,18.40
2018-04-10T23:53:11.092Z,19.03
2018-04-10T23:55:38.667Z,19.27
2018-04-10T23:58:06.219Z,18.77
